Richland, Montana
Current Conditions -  °F | °C
As of 1:53 AM on Wednesday 22 Oct 2014 (Local Time) from KGGW Reporting Station
Scattered Clouds Scattered Clouds  
Wind Chill: 50°   Ceiling: Unl
Heat Index: 50°   Visibility: 10mi
Dew Point: 41°   Wind: 16mph
Humidity: 71%   Direction: 280°W
Pressure: 29.76"   Gusts: NA
Location:  48.82°N, 106.06°W
Report Text: KGGW 220753Z AUTO 28014KT 10SM FEW060 SCT085 10/05 A2976 RMK AO2 SLP074 T01000050
Loading
Personal Weather Stations






























Interactive Weather Map
Tropical Storm Tracking
New forecast layout! Learn more

10-Day Weather Forecast

Advertisements
Track Severe Weather on mobile